Portada
METAR-TAF:

METAR-TAF

Aeroports :

Nan, Tailàndia

latitud: 18-46N, longitud: 100-46E, altitud: 200 m

Observació

L'informe es va fer fa 5 hores i 11 minuts, a les 13:00 UTC
Vent 2 kt amb direcció variable
Temperatura 27°C
Humitat 48%
Pressió 1007 hPa
Visibilitat: 6000 m

METAR: VTCN 221300Z VRB02KT 6000 NSC 27/15 Q1007 NOSIG

Hora: 01:11 (18:11 UTC)

Pronòstic

L'informe es va fer fa 1 hora i 11 minuts, a les 17:00 UTC
Pronòstic vàlid del 22 a les 18 UTC al 23 a les 18 UTC
Vent 5 kt del Nord-Oest
Visibilitat: 7000 m
Escasses núvols a una alçada de 3000 ft

TAF: VTCN 221700Z 2218/2318 32005KT 7000 FEW030

Observacions i pronòstics meteorològics de més de 4000 aeroports (METAR i TAF).

Les estacions disponibles són els punts grocs i vermells al mapa.

Posi el ratolí al punt desitjat per veure el nom de l'estació.

Feu clic per veure les observacions i els pronòstics meteorològics.

Per canviar el mapa: feu clic els botons verds amb una creu de color negre per apropar; al botó verd amb un guió per allunyar la imatge; o en les fletxes verdes per a mapes adjacents.


METAR-TAF: